Погода Итурамана неделю

Минас-Жерайс, Бразилия

24 - 30 июля
  • 24июля
    Сегодня
    +16°
    +32°
    Практически безоблачно
    ВремяПогодаТемператураВлажностьДавлениеВетер, м/сВероятность осадков
    00:00Ясно и безоблачно+22°C35 %730 мм2.7 м/с5 %
    03:00Небольшая облачность+19°C41 %730 мм3.0 м/с5 %
    06:00Практически безоблачно+19°C44 %730 мм2.8 м/с5 %
    09:00Ясно и безоблачно+22°C33 %732 мм2.4 м/с5 %
    12:00Небольшая облачность+29°C20 %732 мм4.0 м/с5 %
    15:00Практически безоблачно+31°C18 %730 мм2.2 м/с5 %
    18:00Небольшая облачность+29°C27 %730 мм1.7 м/с5 %
    21:00Ясно и безоблачно+25°C38 %730 мм1.8 м/с5 %
  • 25июля
    Четверг
    +17°
    +31°
    Ясно и безоблачно
    ВремяПогодаТемператураВлажностьДавлениеВетер, м/сВероятность осадков
    00:00Практически безоблачно+21°C47 %730 мм2.1 м/с5 %
    03:00Ясно и безоблачно+19°C52 %729 мм2.1 м/с5 %
    06:00Ясно и безоблачно+17°C60 %729 мм1.9 м/с5 %
    09:00Ясно и безоблачно+21°C39 %731 мм1.8 м/с5 %
    12:00Ясно и безоблачно+29°C24 %731 мм1.9 м/с5 %
    15:00Ясно и безоблачно+31°C21 %728 мм1.7 м/с5 %
    18:00Ясно и безоблачно+28°C28 %728 мм2.2 м/с5 %
    21:00Ясно и безоблачно+24°C38 %728 мм2.2 м/с5 %
  • 26июля
    Пятница
    +17°
    +32°
    Ясно и безоблачно
    ВремяПогодаТемператураВлажностьДавлениеВетер, м/сВероятность осадков
    00:00Ясно и безоблачно+22°C38 %729 мм2.4 м/с5 %
    03:00Ясно и безоблачно+19°C46 %727 мм2.3 м/с5 %
    06:00Облачно с прояснениями+19°C48 %728 мм2.2 м/с5 %
    09:00Ясно и безоблачно+22°C36 %730 мм2.2 м/с5 %
    12:00Ясно и безоблачно+30°C20 %730 мм3.2 м/с5 %
    15:00Ясно и безоблачно+31°C18 %727 мм1.4 м/с5 %
    18:00Ясно и безоблачно+29°C27 %727 мм1.5 м/с5 %
    21:00Ясно и безоблачно+27°C37 %728 мм2.6 м/с5 %
  • 27июля
    Суббота
    +19°
    +33°
    Ясно и безоблачно
    ВремяПогодаТемператураВлажностьДавлениеВетер, м/сВероятность осадков
    00:00Ясно и безоблачно+23°C39 %728 мм2.5 м/с5 %
    03:00Ясно и безоблачно+19°C47 %727 мм2.2 м/с5 %
    06:00Ясно и безоблачно+18°C52 %727 мм2.2 м/с5 %
    09:00Ясно и безоблачно+22°C36 %730 мм2.5 м/с5 %
    12:00Ясно и безоблачно+30°C21 %730 мм3.0 м/с5 %
    15:00Ясно и безоблачно+32°C19 %728 мм2.1 м/с5 %
    18:00Ясно и безоблачно+30°C27 %728 мм1.8 м/с5 %
    21:00Ясно и безоблачно+25°C34 %729 мм2.0 м/с5 %
  • 28июля
    Воскресенье
    +20°
    +33°
    Ясно и безоблачно
    ВремяПогодаТемператураВлажностьДавлениеВетер, м/сВероятность осадков
    00:00Ясно и безоблачно+22°C42 %729 мм2.4 м/с5 %
    03:00Ясно и безоблачно+20°C45 %727 мм2.6 м/с5 %
    06:00Ясно и безоблачно+21°C53 %728 мм3.1 м/с5 %
    09:00Ясно и безоблачно+25°C40 %730 мм3.7 м/с5 %
    12:00Ясно и безоблачно+32°C23 %730 мм5.2 м/с5 %
    15:00Ясно и безоблачно+33°C22 %728 мм3.0 м/с5 %
    18:00Ясно и безоблачно+30°C28 %728 мм2.3 м/с5 %
    21:00Ясно и безоблачно+28°C29 %728 мм1.6 м/с5 %
Мы используем cookies
Соглашаюсь